METAR Formatted Surface Weather Observation
Issued by NWS

Home | Current Version | Previous Version | Text Only | Print | Product List | Glossary On
Versions: 1 2 3 4 5 6 7 8 9 10 11 12
000
SPZS31 NSTU 101925
MTRSPP
SPECI NSTU 101915Z 25011KT 1/2SM +SHRA SCT014CB OVC040 26/24 A2977
RMK CB ALQDS=


USA.gov is the U.S. government's official web portal to all federal, state and local government web resources and services.